sensor_id;sensor_type;location;lat;lon;timestamp;P1;durP1;ratioP1;P2;durP2;ratioP2
36371;SDS011;22398;51.346;12.372;2024-02-14T15:59:23;3.92;;;1.90;;
36371;SDS011;22398;51.346;12.372;2024-02-14T16:04:28;6.93;;;1.80;;
36371;SDS011;22398;51.346;12.372;2024-02-14T16:09:31;3.75;;;1.73;;
36371;SDS011;22398;51.346;12.372;2024-02-14T16:14:36;3.42;;;1.38;;
36371;SDS011;22398;51.346;12.372;2024-02-14T16:19:39;3.00;;;1.48;;
36371;SDS011;22398;51.346;12.372;2024-02-14T16:24:43;3.50;;;1.50;;
36371;SDS011;22398;51.346;12.372;2024-02-14T16:29:50;2.60;;;1.70;;
36371;SDS011;22398;51.346;12.372;2024-02-14T16:34:54;4.70;;;2.35;;
36371;SDS011;22398;51.346;12.372;2024-02-14T16:39:57;3.50;;;2.10;;
36371;SDS011;22398;51.346;12.372;2024-02-14T16:45:02;6.22;;;2.08;;
36371;SDS011;22398;51.346;12.372;2024-02-14T16:50:08;5.53;;;2.13;;
36371;SDS011;22398;51.346;12.372;2024-02-14T16:55:12;4.70;;;1.98;;
36371;SDS011;22398;51.346;12.372;2024-02-14T17:00:18;4.22;;;1.80;;
36371;SDS011;22398;51.346;12.372;2024-02-14T17:05:22;4.85;;;2.05;;
36371;SDS011;22398;51.346;12.372;2024-02-14T17:10:26;9.68;;;3.17;;
36371;SDS011;22398;51.346;12.372;2024-02-14T17:15:31;6.50;;;2.60;;
36371;SDS011;22398;51.346;12.372;2024-02-14T17:20:34;6.55;;;2.30;;
36371;SDS011;22398;51.346;12.372;2024-02-14T17:25:38;3.85;;;2.10;;
36371;SDS011;22398;51.346;12.372;2024-02-14T17:30:43;4.63;;;2.30;;
36371;SDS011;22398;51.346;12.372;2024-02-14T17:35:50;5.65;;;2.28;;
36371;SDS011;22398;51.346;12.372;2024-02-14T17:40:53;6.85;;;2.25;;
36371;SDS011;22398;51.346;12.372;2024-02-14T17:45:59;5.27;;;2.83;;
36371;SDS011;22398;51.346;12.372;2024-02-14T17:51:03;4.35;;;2.25;;
36371;SDS011;22398;51.346;12.372;2024-02-14T17:56:07;4.60;;;2.05;;
36371;SDS011;22398;51.346;12.372;2024-02-14T18:01:12;4.78;;;3.22;;
36371;SDS011;22398;51.346;12.372;2024-02-14T18:06:16;7.85;;;2.78;;
36371;SDS011;22398;51.346;12.372;2024-02-14T18:11:20;3.60;;;2.10;;
36371;SDS011;22398;51.346;12.372;2024-02-14T18:16:24;5.82;;;2.60;;
36371;SDS011;22398;51.346;12.372;2024-02-14T18:21:28;11.15;;;2.90;;
36371;SDS011;22398;51.346;12.372;2024-02-14T18:26:31;7.18;;;3.40;;
36371;SDS011;22398;51.346;12.372;2024-02-14T18:31:37;6.53;;;2.40;;
36371;SDS011;22398;51.346;12.372;2024-02-14T18:36:40;3.85;;;2.58;;
36371;SDS011;22398;51.346;12.372;2024-02-14T18:41:44;5.55;;;2.40;;
36371;SDS011;22398;51.346;12.372;2024-02-14T18:46:49;4.07;;;2.00;;
36371;SDS011;22398;51.346;12.372;2024-02-14T18:56:56;4.18;;;2.10;;
36371;SDS011;22398;51.346;12.372;2024-02-14T19:02:01;5.82;;;1.88;;
36371;SDS011;22398;51.346;12.372;2024-02-14T19:12:09;3.78;;;2.03;;
36371;SDS011;22398;51.346;12.372;2024-02-14T19:17:15;4.88;;;2.50;;
36371;SDS011;22398;51.346;12.372;2024-02-14T19:22:19;6.35;;;2.60;;
36371;SDS011;22398;51.346;12.372;2024-02-14T19:27:23;5.10;;;2.03;;
36371;SDS011;22398;51.346;12.372;2024-02-14T19:32:27;6.32;;;2.28;;
36371;SDS011;22398;51.346;12.372;2024-02-14T19:37:31;7.28;;;2.50;;
36371;SDS011;22398;51.346;12.372;2024-02-14T19:42:35;4.97;;;2.17;;
36371;SDS011;22398;51.346;12.372;2024-02-14T19:47:40;5.25;;;2.40;;
36371;SDS011;22398;51.346;12.372;2024-02-14T19:52:44;5.80;;;2.33;;
36371;SDS011;22398;51.346;12.372;2024-02-14T19:57:48;4.53;;;2.28;;
36371;SDS011;22398;51.346;12.372;2024-02-14T20:02:53;4.65;;;2.20;;
36371;SDS011;22398;51.346;12.372;2024-02-14T20:07:57;4.15;;;1.75;;
36371;SDS011;22398;51.346;12.372;2024-02-14T20:13:00;5.85;;;2.20;;
36371;SDS011;22398;51.346;12.372;2024-02-14T20:18:05;5.00;;;1.80;;
36371;SDS011;22398;51.346;12.372;2024-02-14T20:23:14;3.63;;;2.08;;
36371;SDS011;22398;51.346;12.372;2024-02-14T20:28:18;4.63;;;2.30;;
36371;SDS011;22398;51.346;12.372;2024-02-14T20:33:28;5.75;;;2.35;;
36371;SDS011;22398;51.346;12.372;2024-02-14T20:38:33;4.13;;;2.63;;
36371;SDS011;22398;51.346;12.372;2024-02-14T20:43:36;4.28;;;2.50;;
36371;SDS011;22398;51.346;12.372;2024-02-14T20:48:41;5.50;;;2.55;;
36371;SDS011;22398;51.346;12.372;2024-02-14T20:53:45;7.50;;;2.80;;
36371;SDS011;22398;51.346;12.372;2024-02-14T20:58:49;3.83;;;2.45;;
36371;SDS011;22398;51.346;12.372;2024-02-14T21:04:08;8.63;;;2.67;;
36371;SDS011;22398;51.346;12.372;2024-02-14T21:09:12;5.03;;;2.97;;
36371;SDS011;22398;51.346;12.372;2024-02-14T21:14:15;4.53;;;3.22;;
36371;SDS011;22398;51.346;12.372;2024-02-14T21:19:20;4.57;;;2.75;;
36371;SDS011;22398;51.346;12.372;2024-02-14T21:24:24;4.97;;;3.07;;
36371;SDS011;22398;51.346;12.372;2024-02-14T21:29:28;6.28;;;2.90;;
36371;SDS011;22398;51.346;12.372;2024-02-14T21:34:32;7.07;;;3.30;;
36371;SDS011;22398;51.346;12.372;2024-02-14T21:39:36;4.33;;;2.57;;
36371;SDS011;22398;51.346;12.372;2024-02-14T21:44:39;6.07;;;3.67;;
36371;SDS011;22398;51.346;12.372;2024-02-14T21:49:45;5.95;;;3.17;;
36371;SDS011;22398;51.346;12.372;2024-02-14T21:54:48;5.35;;;3.05;;
36371;SDS011;22398;51.346;12.372;2024-02-14T21:59:52;3.78;;;2.70;;
36371;SDS011;22398;51.346;12.372;2024-02-14T22:04:57;6.38;;;3.15;;
36371;SDS011;22398;51.346;12.372;2024-02-14T22:10:03;4.50;;;3.10;;
36371;SDS011;22398;51.346;12.372;2024-02-14T22:20:13;5.88;;;3.35;;
36371;SDS011;22398;51.346;12.372;2024-02-14T22:25:17;5.85;;;3.20;;
36371;SDS011;22398;51.346;12.372;2024-02-14T22:30:21;6.35;;;3.33;;
36371;SDS011;22398;51.346;12.372;2024-02-14T22:35:27;8.43;;;3.20;;
36371;SDS011;22398;51.346;12.372;2024-02-14T22:40:31;11.45;;;3.35;;
36371;SDS011;22398;51.346;12.372;2024-02-14T22:45:36;6.70;;;4.10;;
36371;SDS011;22398;51.346;12.372;2024-02-14T22:50:41;6.25;;;3.63;;
36371;SDS011;22398;51.346;12.372;2024-02-14T22:55:45;6.85;;;3.83;;
36371;SDS011;22398;51.346;12.372;2024-02-14T23:00:50;8.48;;;3.80;;
36371;SDS011;22398;51.346;12.372;2024-02-14T23:05:55;9.40;;;3.95;;
36371;SDS011;22398;51.346;12.372;2024-02-14T23:10:58;7.47;;;4.13;;
36371;SDS011;22398;51.346;12.372;2024-02-14T23:16:01;8.40;;;4.00;;
36371;SDS011;22398;51.346;12.372;2024-02-14T23:21:07;7.30;;;4.00;;
36371;SDS011;22398;51.346;12.372;2024-02-14T23:26:14;8.07;;;3.92;;
36371;SDS011;22398;51.346;12.372;2024-02-14T23:31:17;7.82;;;3.88;;
36371;SDS011;22398;51.346;12.372;2024-02-14T23:36:23;9.32;;;4.32;;
36371;SDS011;22398;51.346;12.372;2024-02-14T23:41:28;6.07;;;4.20;;
36371;SDS011;22398;51.346;12.372;2024-02-14T23:46:32;7.75;;;4.45;;
36371;SDS011;22398;51.346;12.372;2024-02-14T23:51:37;6.15;;;3.40;;
36371;SDS011;22398;51.346;12.372;2024-02-14T23:56:44;4.90;;;3.63;;
